Flight Track Log - Related Links

Times and Time Zones

All times are in EDT time to prevent confusion due to time zone crossing. See the DAL3698 flight status page for this flight to view local times or setup timezone preferences in your user account.

Time Position Orientation Groundspeed Altitude Reporting Facility
EDT Latitude Longitude Course Direction KTS MPH feet Rate Location/Type
Thu 07:55:05 PM 35.0500 -89.9667 22° Northeast 170 196 1,100  Level KMEM
Thu 07:55:47 PM 35.0833 -89.9500 22° Northeast 190 219 2,300 1,882 Climbing KMEM
Thu 07:56:47 PM 35.1000 -89.8833 73° East 267 307 4,300 2,150 Climbing KMEM
Thu 07:57:47 PM 35.0500 -89.8167 132° Southeast 303 349 6,600 2,200 Climbing KMEM
Thu 07:58:47 PM 34.9667 -89.8500 198° South 301 346 8,700 1,839 Climbing KMEM
Thu 08:00:04 PM 34.8667 -89.8989 202° Southwest 311 358 10,800 1,358 Climbing Memphis Center
Thu 08:01:04 PM 34.7750 -89.9375 199° South 336 387 11,800 1,100 Climbing Memphis Center
Thu 08:02:04 PM 34.6772 -89.9783 199° South 356 410 13,000 1,400 Climbing Memphis Center
Thu 08:03:04 PM 34.5792 -90.0192 199° South 376 433 14,600 1,537 Climbing Memphis Center
Thu 08:04:05 PM 34.4769 -90.0622 199° South 381 438 16,100 1,500 Climbing Memphis Center
Thu 08:05:04 PM 34.3833 -90.1056 201° Southwest 381 438 17,600 958 Climbing Memphis Center
Thu 08:06:04 PM 34.2747 -90.1208 187° South 381 438 18,000 200 Climbing Memphis Center
Thu 08:07:04 PM 34.1619 -90.1364 187° South 401 461 18,000  Level Memphis Center
Thu 08:08:04 PM 34.0431 -90.1467 184° South 430 495 18,000  Level Memphis Center
Thu 08:09:04 PM 33.9306 -90.1519 182° South 418 481 18,000  Level Memphis Center
Thu 08:10:04 PM 33.8261 -90.1572 182° South 418 481 18,000  Level Memphis Center
Thu 08:11:04 PM 33.7156 -90.1625 182° South 412 474 18,000  Level Memphis Center
Thu 08:12:05 PM 33.6028 -90.1678 182° South 407 468 18,000  Level Memphis Center
Thu 08:13:04 PM 33.4900 -90.1703 181° South 407 468 18,000  Level Memphis Center
Thu 08:14:04 PM 33.3794 -90.1756 182° South 407 468 18,000  Level Memphis Center
Thu 08:15:04 PM 33.2647 -90.1808 182° South 407 468 18,000  Level Memphis Center
Thu 08:16:04 PM 33.1497 -90.1861 182° South 407 468 18,000  Level Memphis Center
Thu 08:17:04 PM 33.0350 -90.1911 182° South 407 468 18,000  Level Memphis Center
Thu 08:18:04 PM 32.9222 -90.1964 182° South 412 474 18,000  Level Memphis Center
Thu 08:19:04 PM 32.7969 -90.1992 181° South 412 474 18,000  Level Memphis Center
Thu 08:20:04 PM 32.6822 -90.2042 182° South 412 474 18,000  Level Memphis Center
Thu 08:21:04 PM 32.5694 -90.2069 181° South 412 474 18,000  Level Memphis Center
Thu 08:22:04 PM 32.4547 -90.2144 183° South 417 480 18,000  Level Memphis Center
Thu 08:23:04 PM 32.3419 -90.2172 181° South 417 480 18,000  Level Memphis Center
Thu 08:24:04 PM 32.2272 -90.2222 182° South 417 480 18,000  Level Memphis Center
Thu 08:25:04 PM 32.1144 -90.2272 182° South 417 480 18,000  Level Memphis Center
Thu 08:27:28 PM 31.8603 -90.2361 182° South 414 476 18,000  Level Houston Center
Thu 08:28:30 PM 31.7208 -90.2422 182° South 417 480 18,000  Level Houston Center
Thu 08:29:32 PM 31.6058 -90.2461 182° South 416 479 18,000  Level Houston Center
Thu 08:30:34 PM 31.4892 -90.2519 182° South 418 481 18,000  Level Houston Center
Thu 08:31:35 PM 31.3736 -90.2567 182° South 418 481 18,000  Level Houston Center
Thu 08:32:37 PM 31.2581 -90.2564 180° South 418 481 18,000 -290 Level Houston Center
Thu 08:33:39 PM 31.1433 -90.2467 176° South 415 478 17,400 -1,065 Descending Houston Center
Thu 08:34:41 PM 31.0072 -90.2372 177° South 410 472 15,800 -1,431 Descending Houston Center
Thu 08:35:49 PM 30.8800 -90.2294 177° South 388 447 14,300 -1,314 Descending Houston Center
Thu 08:36:26 PM 30.8236 -90.2244 176° South 382 440 13,500 -1,200 Descending Houston Center
Thu 08:36:44 PM 30.7933 -90.2219 176° South 386 444 13,200 -1,200 Descending Houston Center
Thu 08:37:26 PM 30.7083 -90.2169 177° South 378 435 12,300 -1,258 Descending Houston Center
Thu 08:37:46 PM 30.6889 -90.2167 179° South 379 436 11,900 -1,574 Descending Houston Center
Thu 08:38:27 PM 30.6058 -90.2139 178° South 373 429 10,700 -1,355 Descending Houston Center
Thu 08:38:48 PM 30.5869 -90.2167 187° South 371 427 10,500 -900 Descending Houston Center
Thu 08:39:27 PM 30.5161 -90.2175 181° South 313 360 9,800 -1,161 Descending Houston Center
Thu 08:39:50 PM 30.5008 -90.2167 177° South 320 368 9,300 -1,869 Descending Houston Center
Thu 08:40:28 PM 30.4325 -90.2186 181° South 292 336 7,900 -1,967 Descending Houston Center
Thu 08:40:51 PM 30.4025 -90.2161 176° South 299 344 7,300 -1,869 Descending Houston Center
Thu 08:41:29 PM 30.3531 -90.2147 179° South 287 330 6,000 -1,839 Descending Houston Center
Thu 08:41:53 PM 30.3239 -90.2175 185° South 290 334 5,400 -1,556 Descending Houston Center
Thu 08:42:23 PM 30.2800 -90.2153 177° South 283 326 4,600 -1,355 Descending Houston Center
Thu 08:42:55 PM 30.2469 -90.2164 182° South 284 327 4,000 -627 Descending Houston Center
Thu 08:43:30 PM 30.2006 -90.2161 180° South 264 304 3,900 -290 Descending Houston Center
Thu 08:43:57 PM 30.1758 -90.2161 180° South 272 313 3,700 -896 Descending Houston Center
Thu 08:44:37 PM 30.1294 -90.2142 178° South 206 237 2,900 -1,161 Descending Houston Center
Thu 08:44:59 PM 30.1203 -90.2144 182° South 229 264 2,500 -1,091 Descending Houston Center
Thu 08:45:43 PM 30.0756 -90.2236 190° South 169 194 1,700 -984 Descending Houston Center
Thu 08:46:00 PM 30.0717 -90.2231 173° South 199 229 1,500 -985 Descending Houston Center
Thu 08:46:50 PM 30.0342 -90.2372 198° South 129 148 600 -968 Descending Houston Center
Thu 08:47:02 PM 30.0283 -90.2394 198° South 158 182 500 -243 Descending Houston Center
Thu 08:48:04 PM 29.9919 -90.2522 197° South 154 177 300 -194 Descending Houston Center

Login

Don't have an account? Register now (free) for customized features, flight alerts, and more!